Time;durP1;ratioP1;P1;durP2;ratioP2;P2;SDS_P1;SDS_P2;PMS_P1;PMS_P2;Temp;Humidity;BMP_temperature;BMP_pressure;BME280_temperature;BME280_humidity;BME280_pressure;Samples;Min_cycle;Max_cycle;Signal;HPM_P1;HPM_P2
2022/12/15 00:39:22;;;;;;;30.70;13.02;;;;;;;-6.89;94.80;100633.81;5028650;28;20500;-74
2022/12/15 00:41:47;;;;;;;28.83;13.60;;;;;;;-6.88;94.56;100630.41;5029422;28;20049;-74
2022/12/15 00:44:12;;;;;;;30.38;11.85;;;;;;;-6.88;94.23;100636.34;5012681;28;20116;-74
2022/12/15 00:46:53;;;;;;;25.08;11.85;;;;;;;-6.88;94.74;100646.59;5028614;28;20068;-74
2022/12/15 01:20:21;;;;;;;27.15;11.43;;;;;;;-6.82;95.73;100655.91;5029501;28;20036;-74
2022/12/15 01:22:52;;;;;;;27.10;12.57;;;;;;;-6.81;95.30;100655.06;5010133;28;20084;-75
2022/12/15 01:25:20;;;;;;;29.00;12.05;;;;;;;-6.79;95.90;100668.72;5028401;28;20025;-75
2022/12/15 01:27:46;;;;;;;28.38;11.30;;;;;;;-6.78;95.40;100667.88;5023702;28;20168;-75
2022/12/15 01:30:14;;;;;;;29.08;12.25;;;;;;;-6.77;95.78;100664.44;5028466;28;20144;-75
2022/12/15 01:32:40;;;;;;;30.30;13.32;;;;;;;-6.77;95.53;100662.75;5027859;28;20389;-75
2022/12/15 01:35:06;;;;;;;28.30;11.38;;;;;;;-6.79;95.17;100663.59;5027281;28;20049;-75
2022/12/15 01:37:33;;;;;;;36.67;12.30;;;;;;;-6.80;95.79;100649.13;5027932;28;20021;-75
2022/12/15 01:42:43;;;;;;;30.83;12.38;;;;;;;-6.76;95.53;100655.91;5025561;28;20048;-75
2022/12/15 01:45:52;;;;;;;26.45;11.90;;;;;;;-6.77;95.16;100652.50;5006045;28;20055;-75
2022/12/15 01:48:27;;;;;;;33.88;12.82;;;;;;;-6.77;95.26;100664.44;5002533;28;20042;-76
2022/12/15 01:51:17;;;;;;;40.90;32.10;;;;;;;-6.93;96.36;100668.78;5022510;28;20028;-75
2022/12/15 01:54:11;;;;;;;30.45;12.05;;;;;;;-6.80;95.84;100675.53;5017797;28;20092;-76
2022/12/15 01:56:43;;;;;;;33.63;12.13;;;;;;;-6.81;95.93;100678.94;5025805;28;20080;-75
2022/12/15 01:59:13;;;;;;;41.65;31.45;;;;;;;-6.90;96.11;100671.31;5026276;28;20462;-76
2022/12/15 02:01:39;;;;;;;27.55;11.38;;;;;;;-6.81;95.83;100675.53;5023756;28;20513;-76
2022/12/15 02:04:04;;;;;;;31.52;12.57;;;;;;;-6.82;95.61;100682.34;5008912;28;20054;-74
2022/12/15 02:06:30;;;;;;;38.78;13.65;;;;;;;-6.83;95.37;100685.75;5004819;28;20621;-75
2022/12/15 02:08:57;;;;;;;29.40;13.07;;;;;;;-6.83;95.85;100696.00;5028778;28;20033;-75
2022/12/15 02:11:45;;;;;;;29.50;12.18;;;;;;;-6.82;95.61;100696.84;5027721;28;20440;-75
2022/12/15 02:14:19;;;;;;;26.58;12.25;;;;;;;-6.84;95.33;100696.00;5016091;28;20402;-75
2022/12/15 02:16:44;;;;;;;30.25;11.85;;;;;;;-6.85;95.18;100700.28;5029857;28;20067;-75
2022/12/15 02:19:37;;;;;;;34.55;12.43;;;;;;;-6.84;95.26;100704.53;5005750;28;20413;-75
2022/12/15 02:22:21;;;;;;;28.95;12.63;;;;;;;-6.84;95.10;100706.22;5025686;28;20040;-75
2022/12/15 02:24:59;;;;;;;26.92;11.98;;;;;;;-6.85;95.28;100699.41;5009607;28;20068;-75
2022/12/15 02:27:40;;;;;;;29.98;11.10;;;;;;;-6.87;95.28;100698.59;5014796;28;20025;-75
2022/12/15 02:30:23;;;;;;;31.10;12.52;;;;;;;-6.88;95.41;100702.00;5032408;28;20049;-75
2022/12/15 02:33:05;;;;;;;29.98;11.52;;;;;;;-6.89;94.97;100705.41;5015423;28;20389;-75
2022/12/15 02:35:42;;;;;;;;;;;;;;;-6.89;94.57;100713.09;5022071;28;20397;-75
2022/12/15 02:38:08;;;;;;;23.38;10.05;;;;;;;-6.92;94.66;100711.41;5029601;28;19920;-75
2022/12/15 02:40:35;;;;;;;26.35;12.23;;;;;;;-6.93;95.12;100706.28;5031950;28;20044;-75
2022/12/15 02:43:05;;;;;;;27.10;12.63;;;;;;;-6.92;94.92;100702.88;5032851;28;20034;-75
2022/12/15 02:45:45;;;;;;;28.48;12.15;;;;;;;-6.91;95.13;100702.00;5014139;28;20112;-74
2022/12/15 02:48:29;;;;;;;30.08;11.48;;;;;;;-6.91;95.00;100710.53;5030702;28;20024;-74
2022/12/15 02:51:06;;;;;;;28.88;12.77;;;;;;;-6.91;95.60;100709.69;5029632;28;20033;-74
2022/12/15 02:53:55;;;;;;;29.10;13.40;;;;;;;-6.90;95.47;100708.81;5012982;28;20117;-75
2022/12/15 02:56:37;;;;;;;29.63;12.27;;;;;;;-6.87;95.49;100713.91;5014791;28;20033;-74
2022/12/15 02:59:22;;;;;;;28.77;12.63;;;;;;;-6.85;95.89;100714.75;5002381;28;20553;-76
2022/12/15 03:02:04;;;;;;;24.25;12.10;;;;;;;-6.84;96.14;100714.75;5013228;28;20113;-75
2022/12/15 03:04:32;;;;;;;;;;;;;;;-6.84;95.39;100712.19;5013389;28;20025;-75
2022/12/15 03:07:05;;;;;;;30.08;12.10;;;;;;;-6.87;95.76;100709.66;5013220;28;19921;-75
2022/12/15 03:09:31;;;;;;;34.53;13.07;;;;;;;-6.87;95.61;100704.53;5018858;28;20033;-76
2022/12/15 03:11:57;;;;;;;26.58;11.85;;;;;;;-6.86;95.57;100716.47;5030999;28;20391;-75
2022/12/15 03:14:24;;;;;;;30.63;13.23;;;;;;;-6.85;95.54;100720.72;5013198;28;20025;-76
2022/12/15 03:16:50;;;;;;;29.83;13.13;;;;;;;-6.84;95.79;100719.03;5031453;28;20068;-75
2022/12/15 03:19:15;;;;;;;30.27;12.75;;;;;;;-6.84;95.65;100724.97;5013687;28;20036;-75
2022/12/15 03:21:40;;;;;;;37.30;12.13;;;;;;;-6.84;95.66;100719.88;5031277;28;20513;-75
2022/12/15 03:24:06;;;;;;;29.42;13.63;;;;;;;-6.84;95.71;100721.56;5026748;28;20052;-75
2022/12/15 03:26:31;;;;;;;29.63;13.77;;;;;;;-6.83;96.11;100723.28;4995261;28;20032;-75
2022/12/15 03:28:57;;;;;;;30.85;12.98;;;;;;;-6.83;96.21;100730.94;5009332;28;20147;-75
2022/12/15 03:31:22;;;;;;;31.63;12.95;;;;;;;-6.83;95.83;100730.94;5030649;28;20091;-75
2022/12/15 03:33:50;;;;;;;35.40;13.60;;;;;;;-6.84;95.82;100732.66;5032361;28;20021;-75
2022/12/15 03:36:16;;;;;;;31.92;13.20;;;;;;;-6.84;95.75;100735.22;5013696;28;20025;-75
2022/12/15 03:38:41;;;;;;;25.90;11.73;;;;;;;-6.83;96.04;100731.78;5032228;28;20151;-75
2022/12/15 03:41:07;;;;;;;29.42;12.85;;;;;;;-6.82;95.68;100733.50;5030000;28;20094;-75
2022/12/15 03:43:32;;;;;;;29.23;13.43;;;;;;;-6.82;95.95;100735.19;5022413;28;20490;-75
2022/12/15 03:45:57;;;;;;;29.20;13.35;;;;;;;-6.83;96.13;100741.19;5031946;28;20075;-75
2022/12/15 03:48:23;;;;;;;24.63;11.18;;;;;;;-6.84;96.08;100739.47;5029438;28;20033;-75
2022/12/15 03:50:49;;;;;;;28.65;12.40;;;;;;;-6.84;95.98;100739.47;5032512;28;20022;-75
2022/12/15 03:53:14;;;;;;;33.72;13.48;;;;;;;-6.83;96.17;100738.63;5031042;28;20109;-75
2022/12/15 03:55:40;;;;;;;31.50;12.93;;;;;;;-6.81;96.47;100745.41;5031681;28;20025;-76
2022/12/15 03:58:05;;;;;;;41.22;31.80;;;;;;;-6.92;96.72;100738.66;5028948;28;20450;-75
2022/12/15 04:00:31;;;;;;;35.10;14.63;;;;;;;-6.82;97.21;100741.16;5013438;28;20036;-75
2022/12/15 04:02:56;;;;;;;26.20;12.68;;;;;;;-6.81;97.01;100739.47;4994287;28;20057;-75
2022/12/15 04:05:26;;;;;;;28.48;13.55;;;;;;;-6.81;96.75;100742.88;5029264;28;21051;-75
2022/12/15 04:07:53;;;;;;;31.00;12.95;;;;;;;-6.81;96.55;100742.00;5012512;28;20363;-76
2022/12/15 04:10:23;;;;;;;36.42;13.85;;;;;;;-6.80;96.67;100741.19;5028997;28;20040;-75
2022/12/15 04:12:48;;;;;;;33.80;13.02;;;;;;;-6.80;96.15;100730.97;5030740;28;20436;-75
2022/12/15 04:15:14;;;;;;;28.95;13.77;;;;;;;-6.82;96.63;100733.50;5023432;28;20029;-75
2022/12/15 04:17:40;;;;;;;29.05;13.25;;;;;;;-6.82;96.64;100725.81;5022582;28;20113;-75
2022/12/15 04:20:10;;;;;;;35.08;14.32;;;;;;;-6.81;96.58;100724.97;5013255;28;20021;-75
2022/12/15 04:22:41;;;;;;;31.00;11.85;;;;;;;-6.81;96.25;100719.84;5012659;28;20464;-75
2022/12/15 05:33:38;;;;;;;36.63;14.32;;;;;;;-6.85;97.36;100766.75;5029489;28;20294;-76
2022/12/15 05:36:04;;;;;;;32.05;13.93;;;;;;;-6.86;97.52;100767.63;5006450;28;20120;-76
2022/12/15 05:38:29;;;;;;;32.67;14.95;;;;;;;-6.85;97.12;100769.31;5025519;28;20029;-75
2022/12/15 05:40:58;;;;;;;34.90;14.85;;;;;;;-6.86;97.72;100770.16;5025036;28;20021;-75
2022/12/15 05:43:24;;;;;;;32.95;13.73;;;;;;;-6.86;97.58;100767.63;5029120;28;20122;-76
2022/12/15 05:45:50;;;;;;;35.78;15.23;;;;;;;-6.85;97.73;100777.00;5012059;28;20025;-76
2022/12/15 05:48:15;;;;;;;37.55;14.38;;;;;;;-6.84;98.19;100775.28;5028317;28;20030;-76
2022/12/15 05:50:40;;;;;;;36.72;15.52;;;;;;;-6.82;97.90;100774.41;5025845;28;20666;-76
2022/12/15 05:53:06;;;;;;;33.20;15.40;;;;;;;-6.79;98.38;100779.53;5011869;28;20504;-76
2022/12/15 05:55:31;;;;;;;39.78;15.23;;;;;;;-6.78;98.11;100786.38;5015452;28;20028;-75
2022/12/15 05:57:57;;;;;;;33.55;15.57;;;;;;;-6.75;98.55;100777.81;5017050;28;20029;-76
2022/12/15 06:00:22;;;;;;;36.33;15.02;;;;;;;-6.73;98.20;100786.34;5020453;28;20033;-75
2022/12/15 06:02:48;;;;;;;30.90;15.38;;;;;;;-6.72;98.83;100783.78;5028730;28;20036;-75
2022/12/15 06:05:13;;;;;;;49.50;38.15;;;;;;;-6.83;98.88;100795.72;5028020;28;20065;-75
2022/12/15 06:07:39;;;;;;;35.97;15.00;;;;;;;-6.73;99.44;100796.56;5030362;28;20033;-75
2022/12/15 06:10:04;;;;;;;36.85;15.57;;;;;;;-6.72;98.64;100790.59;5009559;28;20501;-74
2022/12/15 06:12:30;;;;;;;51.72;39.63;;;;;;;-6.79;100.00;100784.66;5010965;28;20033;-74
2022/12/15 06:14:55;;;;;;;37.50;15.90;;;;;;;-6.72;99.66;100785.47;5029264;28;20019;-74
2022/12/15 06:17:21;;;;;;;36.28;16.45;;;;;;;-6.72;99.27;100780.38;5010461;28;20033;-75
2022/12/15 06:19:46;;;;;;;35.80;14.43;;;;;;;-6.74;99.13;100784.63;5030266;28;20022;-75
2022/12/15 06:22:11;;;;;;;39.67;16.35;;;;;;;-6.77;98.38;100790.63;5028682;28;20541;-75
2022/12/15 06:24:37;;;;;;;46.45;16.00;;;;;;;-6.78;98.52;100795.75;5027265;28;20978;-74
2022/12/15 06:27:03;;;;;;;31.27;13.73;;;;;;;-6.80;98.49;100798.31;5016660;28;20413;-74
2022/12/15 06:29:28;;;;;;;31.77;12.95;;;;;;;-6.80;98.39;100790.63;5028585;28;20057;-74
2022/12/15 06:31:54;;;;;;;29.33;14.85;;;;;;;-6.83;97.81;100793.19;5011732;28;20041;-74
2022/12/15 06:34:20;;;;;;;32.03;13.25;;;;;;;-6.84;97.83;100801.69;5029347;28;20033;-74
2022/12/15 06:36:45;;;;;;;29.85;13.07;;;;;;;-6.85;97.67;100801.72;5016973;28;20047;-74
2022/12/15 06:39:14;;;;;;;30.67;13.82;;;;;;;-6.87;98.31;100805.97;5009769;28;20033;-74
2022/12/15 06:41:40;;;;;;;33.70;14.85;;;;;;;-6.88;98.08;100804.28;5027910;28;20026;-75
2022/12/15 06:44:05;;;;;;;31.27;13.80;;;;;;;-6.91;97.32;100801.75;5018967;28;20026;-75
2022/12/15 06:46:32;;;;;;;35.78;14.60;;;;;;;-6.92;97.37;100812.81;5007458;28;20025;-75
2022/12/15 06:48:58;;;;;;;37.35;15.68;;;;;;;-6.94;97.78;100810.28;5009489;28;20083;-75
2022/12/15 06:51:27;;;;;;;31.48;14.95;;;;;;;-6.92;98.28;100807.72;5024942;28;20119;-75
2022/12/15 06:53:55;;;;;;;32.05;14.02;;;;;;;-6.90;98.20;100806.00;5011030;28;20025;-75
2022/12/15 06:56:21;;;;;;;36.22;14.65;;;;;;;-6.86;98.50;100797.44;5025957;28;20048;-75
2022/12/15 06:58:51;;;;;;;33.88;14.20;;;;;;;-6.84;98.95;100808.53;5026473;28;20056;-75
2022/12/15 07:01:20;;;;;;;26.92;13.25;;;;;;;-6.83;98.67;100802.56;5009183;28;20037;-75
2022/12/15 07:03:46;;;;;;;36.00;13.57;;;;;;;-6.83;98.40;100805.97;5029039;28;20084;-75
2022/12/15 07:06:14;;;;;;;29.63;13.30;;;;;;;-6.81;98.47;100811.06;5028020;28;20075;-75
2022/12/15 07:08:40;;;;;;;36.17;14.63;;;;;;;-6.80;98.41;100813.66;5027444;28;20037;-74
2022/12/15 07:11:07;;;;;;;39.35;14.40;;;;;;;-6.80;98.50;100815.38;5027710;28;20462;-74
2022/12/15 07:13:32;;;;;;;31.60;14.05;;;;;;;-6.80;98.68;100823.88;5031362;28;20393;-74
2022/12/15 07:15:59;;;;;;;31.42;14.90;;;;;;;-6.79;98.83;100824.72;5032179;28;20032;-74
2022/12/15 07:18:25;;;;;;;34.15;14.32;;;;;;;-6.79;98.35;100822.19;5028685;28;20029;-74
2022/12/15 07:20:50;;;;;;;38.00;15.55;;;;;;;-6.78;99.24;100821.31;5032853;28;20030;-75
2022/12/15 07:23:16;;;;;;;31.65;14.70;;;;;;;-6.77;98.72;100817.91;5032693;28;20026;-74
2022/12/15 07:25:41;;;;;;;36.58;14.45;;;;;;;-6.77;98.60;100823.03;5032265;28;20025;-74
2022/12/15 07:28:07;;;;;;;32.97;14.88;;;;;;;-6.76;98.64;100829.84;5030802;28;20029;-74
2022/12/15 07:30:33;;;;;;;39.30;15.65;;;;;;;-6.76;98.76;100828.13;5032360;28;20050;-75
2022/12/15 07:32:59;;;;;;;36.30;14.13;;;;;;;-6.77;98.32;100828.13;5013164;28;20489;-74
2022/12/15 07:35:25;;;;;;;35.53;14.88;;;;;;;-6.78;98.90;100827.28;5010672;28;20490;-74
2022/12/15 07:37:50;;;;;;;48.22;36.65;;;;;;;-6.85;99.57;100819.63;5030214;28;20039;-74
2022/12/15 07:40:16;;;;;;;31.40;14.55;;;;;;;-6.77;100.00;100830.69;5029514;28;20037;-74
2022/12/15 07:42:41;;;;;;;36.97;14.07;;;;;;;-6.75;99.87;100834.94;5014003;28;20029;-74
2022/12/15 07:45:08;;;;;;;30.10;13.82;;;;;;;-6.73;99.28;100834.94;5030209;28;20029;-75
2022/12/15 07:47:33;;;;;;;51.35;37.38;;;;;;;-6.82;99.88;100838.34;5028817;28;20028;-75
2022/12/15 07:49:58;;;;;;;37.05;15.50;;;;;;;-6.74;100.00;100839.19;5014142;28;20389;-74
2022/12/15 07:52:24;;;;;;;34.78;15.30;;;;;;;-6.78;99.54;100827.28;5029675;28;20025;-74
2022/12/15 07:54:50;;;;;;;31.25;14.45;;;;;;;-6.74;99.71;100841.75;5030943;28;20029;-74
2022/12/15 07:57:16;;;;;;;34.88;14.73;;;;;;;-6.72;99.25;100832.38;5031786;28;20116;-74
2022/12/15 07:59:41;;;;;;;39.67;15.30;;;;;;;-6.72;99.94;100840.03;5031448;28;20033;-74
2022/12/15 08:02:11;;;;;;;36.58;14.75;;;;;;;-6.69;99.62;100845.16;5013420;28;20021;-74
2022/12/15 08:04:37;;;;;;;35.60;14.82;;;;;;;-6.66;100.00;100846.84;5013760;28;20037;-74
2022/12/15 08:07:03;;;;;;;35.15;14.20;;;;;;;-6.66;99.48;100849.41;5031528;28;20104;-74
2022/12/15 08:09:30;;;;;;;42.90;15.95;;;;;;;-6.66;99.72;100852.81;5030746;28;20051;-74
2022/12/15 08:11:55;;;;;;;35.30;15.27;;;;;;;-6.64;99.92;100851.09;5031680;28;20031;-74
2022/12/15 08:14:21;;;;;;;41.80;16.00;;;;;;;-6.60;100.00;100854.50;5031489;28;20021;-74
2022/12/15 08:16:46;;;;;;;35.38;15.88;;;;;;;-6.55;100.00;100860.44;5031630;28;20436;-74
2022/12/15 08:19:14;;;;;;;38.50;15.98;;;;;;;-6.51;99.92;100856.16;5031848;28;20049;-74
2022/12/15 08:21:40;;;;;;;51.45;38.72;;;;;;;-6.55;100.00;100851.91;5030323;28;20059;-74
2022/12/15 08:24:07;;;;;;;34.40;15.57;;;;;;;-6.47;100.00;100857.84;5029510;28;20017;-74
2022/12/15 08:26:33;;;;;;;36.72;16.90;;;;;;;-6.46;100.00;100860.38;5031568;28;20025;-74
2022/12/15 08:29:04;;;;;;;36.03;15.48;;;;;;;-6.44;100.00;100861.22;5030514;28;20159;-75
2022/12/15 08:31:31;;;;;;;39.25;16.35;;;;;;;-6.43;99.93;100864.63;5026250;28;20546;-74
2022/12/15 08:33:57;;;;;;;40.88;16.58;;;;;;;-6.40;100.00;100862.94;5011888;28;20469;-74
2022/12/15 08:36:22;;;;;;;40.40;15.40;;;;;;;-6.36;99.92;100853.53;5011208;28;20022;-74
2022/12/15 08:38:48;;;;;;;44.65;16.20;;;;;;;-6.32;99.97;100856.06;5011556;28;20108;-74
2022/12/15 08:41:22;;;;;;;37.38;17.13;;;;;;;-6.27;99.94;100865.44;5011508;28;20033;-75
2022/12/15 08:43:48;;;;;;;42.30;15.98;;;;;;;-6.24;100.00;100856.03;5011508;28;20022;-74
2022/12/15 08:46:18;;;;;;;36.75;16.45;;;;;;;-6.19;100.00;100858.56;5011334;28;20026;-74
2022/12/15 08:48:44;;;;;;;46.25;19.58;;;;;;;-6.17;99.91;100855.13;5011253;28;20022;-75
2022/12/15 08:51:09;;;;;;;39.05;17.45;;;;;;;-6.11;100.00;100860.22;5010435;28;20034;-74
2022/12/15 08:53:35;;;;;;;37.80;16.80;;;;;;;-6.07;100.00;100866.16;5010381;28;20418;-75
2022/12/15 08:56:03;;;;;;;36.30;16.70;;;;;;;-6.03;100.00;100865.28;5011023;28;20040;-75
2022/12/15 08:58:28;;;;;;;40.88;15.82;;;;;;;-5.99;100.00;100873.81;5008796;28;20032;-75
2022/12/15 09:01:01;;;;;;;37.22;16.83;;;;;;;-5.93;100.00;100876.34;5011099;28;20026;-76
2022/12/15 09:03:26;;;;;;;42.53;17.85;;;;;;;-5.86;100.00;100883.09;5010140;28;20030;-76
2022/12/15 09:05:52;;;;;;;46.17;18.48;;;;;;;-5.81;100.00;100884.75;5008848;28;20026;-76
2022/12/15 09:08:17;;;;;;;36.20;16.90;;;;;;;-5.75;100.00;100886.44;5011128;28;20450;-76
2022/12/15 09:10:42;;;;;;;41.47;17.25;;;;;;;-5.72;100.00;100897.50;5010496;28;20018;-76
2022/12/15 09:13:08;;;;;;;33.92;15.63;;;;;;;-5.67;100.00;100906.00;5009957;28;20041;-76
2022/12/15 09:15:33;;;;;;;38.88;17.35;;;;;;;-5.62;100.00;100902.56;5009384;28;20084;-76
2022/12/15 09:17:58;;;;;;;52.60;19.30;;;;;;;-5.56;100.00;100912.78;5010352;28;20490;-76
2022/12/15 09:20:24;;;;;;;36.20;18.23;;;;;;;-5.51;100.00;100908.47;5005336;28;20574;-75
2022/12/15 09:22:49;;;;;;;35.00;16.73;;;;;;;-5.46;100.00;100899.03;5000043;28;20033;-75
2022/12/15 09:25:14;;;;;;;36.42;16.25;;;;;;;-5.39;100.00;100908.38;5009306;28;20474;-75
2022/12/15 09:27:40;;;;;;;41.92;18.52;;;;;;;-5.31;100.00;100910.88;5007564;28;20056;-75
2022/12/15 09:30:06;;;;;;;39.35;18.27;;;;;;;-5.25;100.00;100919.38;5016413;28;20379;-75
2022/12/15 09:32:31;;;;;;;41.30;17.85;;;;;;;-5.19;100.00;100924.47;5029022;28;20036;-75
2022/12/15 09:34:56;;;;;;;38.72;17.35;;;;;;;-5.13;100.00;100937.22;5009982;28;20449;-75
2022/12/15 09:37:23;;;;;;;48.10;18.25;;;;;;;-5.08;100.00;100932.06;5028978;28;20061;-76
2022/12/15 09:39:48;;;;;;;40.10;18.08;;;;;;;-5.03;100.00;100929.44;5029526;28;20087;-75
2022/12/15 09:42:29;;;;;;;46.42;18.77;;;;;;;-4.97;100.00;100934.53;5026735;28;20095;-75
2022/12/15 09:45:02;;;;;;;41.10;18.10;;;;;;;-4.91;100.00;100934.47;5028653;28;20486;-75
2022/12/15 09:47:44;;;;;;;35.72;17.20;;;;;;;-4.86;100.00;100935.25;5026626;28;20017;-75
2022/12/15 09:50:13;;;;;;;46.42;17.60;;;;;;;-4.81;100.00;100936.91;5029668;28;20037;-75
2022/12/15 09:52:47;;;;;;;45.75;17.67;;;;;;;-4.76;100.00;100942.03;5028856;28;20467;-75
2022/12/15 09:55:20;;;;;;;43.45;19.38;;;;;;;-4.70;100.00;100944.53;5010651;28;20033;-74
2022/12/15 09:57:45;;;;;;;57.97;42.53;;;;;;;-4.66;100.00;100940.22;5010315;28;20076;-76
2022/12/15 10:00:20;;;;;;;40.97;19.45;;;;;;;-4.58;100.00;100944.41;5007074;28;20469;-74
2022/12/15 10:03:10;;;;;;;43.67;19.13;;;;;;;-4.49;100.00;100943.44;5028071;28;21655;-74
2022/12/15 10:05:51;;;;;;;39.28;18.52;;;;;;;-4.42;100.00;100939.94;5027195;28;20079;-75
2022/12/15 10:08:17;;;;;;;40.13;17.88;;;;;;;-4.35;100.00;100938.19;5027381;28;20461;-75
2022/12/15 10:10:43;;;;;;;42.13;18.23;;;;;;;-4.30;100.00;100936.41;5026588;28;20056;-76
2022/12/15 10:13:23;;;;;;;54.67;41.78;;;;;;;-4.23;100.00;100944.00;5027301;28;20505;-76
2022/12/15 10:15:59;;;;;;;52.03;41.72;;;;;;;-4.20;100.00;100940.56;5010468;28;20026;-75
2022/12/15 10:18:34;;;;;;;38.67;17.42;;;;;;;-4.10;100.00;100934.44;5028344;28;20049;-75
2022/12/15 10:21:01;;;;;;;41.75;19.40;;;;;;;-4.04;100.00;100923.22;5011939;28;20437;-75
2022/12/15 10:23:27;;;;;;;36.10;17.08;;;;;;;-3.97;100.00;100925.72;5009561;28;20025;-75
2022/12/15 10:26:24;;;;;;;39.42;16.50;;;;;;;-3.88;100.00;100922.16;5011905;28;20116;-74
2022/12/15 10:29:05;;;;;;;39.83;17.65;;;;;;;-3.79;100.00;100925.44;5020307;28;20033;-74
2022/12/15 10:31:43;;;;;;;39.67;18.02;;;;;;;-3.67;100.00;100936.41;5028613;28;20053;-74
2022/12/15 10:34:36;;;;;;;39.03;18.08;;;;;;;-3.56;100.00;100943.13;5011941;28;20065;-74
2022/12/15 10:37:02;;;;;;;;;;;;;;;-3.47;100.00;100935.28;5011965;28;20022;-74
2022/12/15 10:39:40;;;;;;;40.05;16.85;;;;;;;-3.42;100.00;100940.34;5029692;28;20396;-74
2022/12/15 10:42:26;;;;;;;37.35;17.00;;;;;;;-3.36;100.00;100940.25;5029978;28;20028;-74
2022/12/15 10:44:56;;;;;;;50.83;40.50;;;;;;;-3.29;100.00;100939.25;5029471;28;20021;-74
2022/12/15 10:47:27;;;;;;;56.33;42.42;;;;;;;-3.19;100.00;100940.84;5030577;28;20879;-74
2022/12/15 10:49:54;;;;;;;45.30;19.50;;;;;;;-3.12;100.00;100940.75;5024354;28;20441;-74
2022/12/15 10:52:33;;;;;;;43.38;19.15;;;;;;;-3.04;100.00;100938.88;5011035;28;20054;-74
2022/12/15 10:54:58;;;;;;;43.05;18.65;;;;;;;-2.96;100.00;100937.03;5013819;28;20105;-74
2022/12/15 10:57:29;;;;;;;40.53;18.73;;;;;;;-2.90;100.00;100936.91;5012697;28;20530;-74
2022/12/15 11:00:14;;;;;;;52.58;39.97;;;;;;;-2.85;100.00;100932.53;5012631;28;20026;-75
2022/12/15 11:02:42;;;;;;;52.13;41.08;;;;;;;-2.80;100.00;100933.31;5005874;28;20045;-74
2022/12/15 11:05:16;;;;;;;50.92;41.03;;;;;;;-2.67;99.93;100934.78;5017417;28;20367;-75
2022/12/15 11:07:48;;;;;;;41.08;19.40;;;;;;;-2.58;100.00;100924.31;5022451;28;20486;-75
2022/12/15 11:10:21;;;;;;;45.17;18.90;;;;;;;-2.49;99.55;100927.59;5013144;28;20038;-74
2022/12/15 11:13:03;;;;;;;44.70;19.92;;;;;;;-2.43;99.63;100932.63;5011884;28;20490;-75
2022/12/15 11:15:39;;;;;;;39.42;18.17;;;;;;;-2.34;99.46;100937.63;5013093;28;20402;-74
2022/12/15 11:18:17;;;;;;;49.67;37.90;;;;;;;-2.31;98.35;100933.25;5012053;28;20018;-74
2022/12/15 11:20:58;;;;;;;47.38;38.05;;;;;;;-2.26;98.04;100930.56;5012319;28;20045;-74
2022/12/15 11:23:33;;;;;;;38.38;18.02;;;;;;;-2.18;98.14;100915.81;5020324;28;20549;-74
2022/12/15 11:26:12;;;;;;;45.60;19.02;;;;;;;-2.11;97.92;100914.78;5012337;28;20034;-74
2022/12/15 11:28:44;;;;;;;48.85;37.42;;;;;;;-2.04;97.39;100918.94;4994790;28;20386;-76
2022/12/15 11:31:43;;;;;;;35.45;17.33;;;;;;;-1.95;97.93;100915.34;4997853;28;20041;-75
2022/12/15 11:34:19;;;;;;;38.90;16.90;;;;;;;-1.89;97.42;100917.78;5023245;28;20626;-74
2022/12/15 11:37:15;;;;;;;49.40;36.97;;;;;;;-1.79;96.78;100916.69;5031664;28;20057;-75
2022/12/15 11:40:21;;;;;;;46.78;36.88;;;;;;;-1.69;96.56;100927.63;5024481;28;20152;-75
2022/12/15 11:43:17;;;;;;;46.60;36.45;;;;;;;-1.63;96.17;100925.75;5028740;28;20521;-75
2022/12/15 11:46:03;;;;;;;43.95;35.63;;;;;;;-1.59;95.37;100921.41;5013046;28;20120;-75
2022/12/15 11:48:44;;;;;;;39.03;19.88;;;;;;;-1.50;95.96;100926.34;5029759;28;20371;-75
2022/12/15 11:51:12;;;;;;;48.40;36.58;;;;;;;-1.48;94.73;100919.44;5013794;28;20025;-75
2022/12/15 11:53:59;;;;;;;46.97;36.35;;;;;;;-1.43;94.42;100922.75;5030928;28;20052;-75
2022/12/15 11:56:58;;;;;;;48.40;37.20;;;;;;;-1.32;94.46;100918.16;5018981;28;20029;-75
2022/12/15 11:59:35;;;;;;;43.83;35.53;;;;;;;-1.24;94.40;100909.38;5016016;28;20081;-75
2022/12/15 12:02:25;;;;;;;45.90;36.33;;;;;;;-1.18;93.77;100909.25;5001052;28;20454;-75
2022/12/15 12:05:09;;;;;;;45.97;35.15;;;;;;;-1.13;93.86;100912.56;5030725;28;20056;-75
2022/12/15 12:08:02;;;;;;;46.33;36.45;;;;;;;-1.08;92.87;100910.72;5024304;28;20021;-74
2022/12/15 12:11:00;;;;;;;43.67;36.22;;;;;;;-1.02;93.26;100900.22;5012881;28;20409;-74
2022/12/15 12:13:34;;;;;;;45.45;35.63;;;;;;;-0.97;92.67;100899.22;5002437;28;20041;-73
2022/12/15 12:16:03;;;;;;;42.22;35.38;;;;;;;-0.97;92.18;100898.38;5024969;28;20044;-75
2022/12/15 12:18:36;;;;;;;44.22;34.95;;;;;;;-0.93;91.76;100900.00;5031840;28;20029;-73
2022/12/15 12:21:12;;;;;;;40.88;33.70;;;;;;;-0.84;91.30;100889.41;5030991;28;20033;-73
2022/12/15 12:23:53;;;;;;;37.53;17.73;;;;;;;-0.76;92.09;100892.66;5031083;28;20246;-73
2022/12/15 12:26:27;;;;;;;41.78;33.22;;;;;;;-0.78;91.07;100886.69;5031360;28;20029;-73
2022/12/15 12:29:04;;;;;;;38.28;33.03;;;;;;;-0.67;91.32;100882.06;5009062;28;20017;-74
2022/12/15 12:31:47;;;;;;;41.60;34.35;;;;;;;-0.61;91.62;100880.22;5028812;28;20044;-73
2022/12/15 12:34:25;;;;;;;44.63;34.50;;;;;;;-0.61;90.85;100886.22;5012549;28;20053;-73
2022/12/15 12:36:52;;;;;;;41.65;33.90;;;;;;;-0.53;90.83;100879.09;5029793;28;20030;-73
2022/12/15 12:39:23;;;;;;;44.78;32.95;;;;;;;-0.49;90.58;100878.13;5030661;28;21585;-73
2022/12/15 12:42:02;;;;;;;43.35;34.05;;;;;;;-0.45;89.94;100886.63;5010439;28;20116;-73
2022/12/15 12:44:37;;;;;;;42.42;34.20;;;;;;;-0.39;90.28;100892.50;5009158;28;20017;-73
2022/12/15 12:47:25;;;;;;;41.53;34.65;;;;;;;-0.36;89.38;100889.84;5009282;28;20033;-74
2022/12/15 12:50:03;;;;;;;43.58;34.63;;;;;;;-0.32;89.54;100888.00;5030675;28;20539;-73
2022/12/15 12:52:32;;;;;;;42.30;33.53;;;;;;;-0.30;89.37;100883.63;5029685;28;20155;-73
2022/12/15 12:55:03;;;;;;;41.75;33.95;;;;;;;-0.24;88.96;100873.13;5029793;28;20480;-75
2022/12/15 12:57:31;;;;;;;44.03;33.90;;;;;;;-0.28;88.81;100868.94;5029921;28;20030;-73
2022/12/15 13:00:18;;;;;;;44.97;34.45;;;;;;;-0.27;88.63;100865.44;5031016;28;20064;-74
2022/12/15 13:03:15;;;;;;;43.22;33.65;;;;;;;-0.21;88.95;100865.28;5008104;28;20038;-76
2022/12/15 13:05:43;;;;;;;42.92;34.78;;;;;;;-0.24;88.84;100860.19;5022382;28;20790;-73
2022/12/15 13:08:09;;;;;;;43.30;35.03;;;;;;;-0.24;88.24;100851.59;4992942;28;20084;-73
2022/12/15 13:10:40;;;;;;;44.47;34.95;;;;;;;-0.21;88.13;100848.91;5010035;28;20029;-73
2022/12/15 13:13:17;;;;;;;46.75;34.95;;;;;;;-0.15;88.42;100846.13;5027989;28;20064;-73
2022/12/15 13:15:47;;;;;;;46.72;35.10;;;;;;;-0.14;88.96;100851.25;5025527;28;20032;-73
2022/12/15 13:18:23;;;;;;;44.92;35.90;;;;;;;-0.08;88.68;100843.31;5020825;28;20037;-75
2022/12/15 13:20:53;;;;;;;42.35;34.35;;;;;;;-0.12;88.72;100833.97;5022570;28;20076;-73
2022/12/15 13:23:19;;;;;;;43.05;33.08;;;;;;;-0.05;88.40;100837.22;5020601;28;20030;-74
2022/12/15 13:25:56;;;;;;;43.17;34.20;;;;;;;-0.06;88.76;100838.94;5028069;28;20036;-73
2022/12/15 13:28:33;;;;;;;43.97;35.28;;;;;;;-0.06;88.34;100838.94;5022260;28;20443;-74
2022/12/15 13:31:20;;;;;;;44.15;34.90;;;;;;;-0.04;88.91;100837.16;5026209;28;20089;-73
2022/12/15 13:33:48;;;;;;;45.75;34.65;;;;;;;-0.12;88.46;100836.56;5030246;28;20128;-75
2022/12/15 13:36:35;;;;;;;40.85;34.25;;;;;;;-0.04;88.67;100831.97;5029132;28;20025;-74
2022/12/15 13:39:21;;;;;;;45.80;36.67;;;;;;;-0.02;88.62;100822.44;5020562;28;20056;-75
2022/12/15 13:41:46;;;;;;;45.50;37.58;;;;;;;0.03;88.91;100816.31;5011724;28;20025;-75
2022/12/15 13:44:19;;;;;;;44.45;36.75;;;;;;;-0.01;87.95;100826.72;5028670;28;20371;-73
2022/12/15 13:46:46;;;;;;;43.00;36.78;;;;;;;0.01;88.49;100829.28;5029336;28;20029;-73
2022/12/15 13:49:20;;;;;;;47.22;37.67;;;;;;;0.03;88.45;100826.66;5028466;28;20040;-73